Time;durP1;ratioP1;P1;durP2;ratioP2;P2;SDS_P1;SDS_P2;PMS_P1;PMS_P2;Temp;Humidity;BMP_temperature;BMP_pressure;BME280_temperature;BME280_humidity;BME280_pressure;Samples;Min_cycle;Max_cycle;Signal;HPM_P1;HPM_P2
2022/11/05 00:10:25;;;;;;;;;;;7.50;99.90;;;;;;5054606;28;20035;-77
2022/11/05 00:18:21;;;;;;;;;;;7.50;99.90;;;;;;5054157;28;19947;-76
2022/11/05 00:20:46;;;;;;;;;;;7.50;99.90;;;;;;5053450;28;19913;-76
2022/11/05 00:25:57;;;;;;;;;;;7.50;99.90;;;;;;5055417;28;20030;-76
2022/11/05 00:28:23;;;;;;;;;;;7.50;99.90;;;;;;5054715;28;20213;-76
2022/11/05 00:30:49;;;;;;;;;;;7.40;99.90;;;;;;5054693;28;20016;-78
2022/11/05 00:33:14;;;;;;;;;;;7.40;99.90;;;;;;5054863;28;20004;-76
2022/11/05 00:35:40;;;;;;;;;;;7.40;99.90;;;;;;5055178;28;19920;-76
2022/11/05 00:38:05;;;;;;;;;;;7.40;99.90;;;;;;5055324;28;19921;-76
2022/11/05 00:40:31;;;;;;;;;;;7.40;99.90;;;;;;5074660;28;19963;-76
2022/11/05 00:45:40;;;;;;;;;;;7.20;99.90;;;;;;5074809;28;19923;-76
2022/11/05 00:50:50;;;;;;;;;;;7.20;99.90;;;;;;5074279;28;19935;-76
2022/11/05 00:53:16;;;;;;;;;;;7.10;99.90;;;;;;5073611;28;20311;-79
2022/11/05 00:55:43;;;;;;;;;;;7.10;99.90;;;;;;5107463;28;20042;-76
2022/11/05 00:58:10;;;;;;;;;;;7.20;99.90;;;;;;5069701;28;19924;-76
2022/11/05 01:00:37;;;;;;;;;;;7.20;99.90;;;;;;5072421;28;20300;-76
2022/11/05 01:03:04;;;;;;;;;;;7.20;99.90;;;;;;5071568;28;19920;-76
2022/11/05 01:05:30;;;;;;;;;;;7.20;99.90;;;;;;5074025;28;19922;-76
2022/11/05 01:07:56;;;;;;;;;;;7.10;99.90;;;;;;5073484;28;19917;-76
2022/11/05 01:10:22;;;;;;;;;;;7.10;99.90;;;;;;5073903;28;19909;-77
2022/11/05 01:12:48;;;;;;;;;;;7.10;99.90;;;;;;5073747;28;19960;-76
2022/11/05 01:15:13;;;;;;;;;;;7.00;99.90;;;;;;5069492;28;19978;-80
2022/11/05 01:17:39;;;;;;;;;;;7.00;99.90;;;;;;5068547;28;19920;-76
2022/11/05 01:20:05;;;;;;;;;;;6.90;99.90;;;;;;5074910;28;19912;-76
2022/11/05 01:22:31;;;;;;;;;;;6.90;99.90;;;;;;5070482;28;19920;-75
2022/11/05 01:24:56;;;;;;;;;;;6.80;99.90;;;;;;5073382;28;19939;-76
2022/11/05 01:27:22;;;;;;;;;;;6.80;99.90;;;;;;5066477;28;19909;-76
2022/11/05 01:29:47;;;;;;;;;;;6.70;99.90;;;;;;5074332;28;19909;-76
2022/11/05 01:32:13;;;;;;;;;;;6.70;99.90;;;;;;5074045;28;19955;-76
2022/11/05 01:34:38;;;;;;;;;;;6.70;99.90;;;;;;5065145;28;20012;-76
2022/11/05 01:37:04;;;;;;;;;;;6.70;99.90;;;;;;5073475;28;19962;-78
2022/11/05 01:39:30;;;;;;;;;;;6.80;99.90;;;;;;5072767;28;19953;-76
2022/11/05 01:41:57;;;;;;;;;;;6.70;99.90;;;;;;5074093;28;19926;-76
2022/11/05 01:44:41;;;;;;;;;;;6.70;99.90;;;;;;5074054;28;20272;-76
2022/11/05 01:47:24;;;;;;;;;;;6.70;99.90;;;;;;5106829;28;19913;-76
2022/11/05 01:49:50;;;;;;;;;;;6.70;99.90;;;;;;5073024;28;19944;-77
2022/11/05 01:52:16;;;;;;;;;;;6.60;99.90;;;;;;5073078;28;19947;-76
2022/11/05 01:54:42;;;;;;;;;;;6.60;99.90;;;;;;5070474;28;19912;-76
2022/11/05 01:57:08;;;;;;;;;;;6.50;99.90;;;;;;5073501;28;20007;-76
2022/11/05 01:59:37;;;;;;;;;;;6.50;99.90;;;;;;5065584;28;20000;-76
2022/11/05 02:02:05;;;;;;;;;;;6.50;99.90;;;;;;5072622;28;20261;-76
2022/11/05 02:04:34;;;;;;;;;;;6.50;99.90;;;;;;5073473;28;19909;-76
2022/11/05 02:07:00;;;;;;;;;;;6.50;99.90;;;;;;5059148;28;19917;-77
2022/11/05 02:09:42;;;;;;;;;;;6.40;99.90;;;;;;5070202;28;19970;-76
2022/11/05 02:12:08;;;;;;;;;;;6.40;99.90;;;;;;5065017;28;19916;-80
2022/11/05 02:14:34;;;;;;;;;;;6.40;99.90;;;;;;5068956;28;19915;-77
2022/11/05 02:17:02;;;;;;;;;;;6.50;99.90;;;;;;5063083;28;19920;-76
2022/11/05 02:20:00;;;;;;;;;;;6.50;99.90;;;;;;5076424;28;19916;-77
2022/11/05 02:22:26;;;;;;;;;;;6.50;99.90;;;;;;5074714;28;19920;-76
2022/11/05 02:25:10;;;;;;;;;;;6.50;99.90;;;;;;5073467;28;20215;-80
2022/11/05 02:27:38;;;;;;;;;;;6.50;99.90;;;;;;5077771;28;20368;-76
2022/11/05 02:30:04;;;;;;;;;;;6.50;99.90;;;;;;5075614;28;19919;-76
2022/11/05 02:32:36;;;;;;;;;;;6.50;99.90;;;;;;5077473;28;19913;-76
2022/11/05 02:35:02;;;;;;;;;;;6.50;99.90;;;;;;5067789;28;19917;-76
2022/11/05 02:37:36;;;;;;;;;;;6.60;99.90;;;;;;5077243;28;19912;-76
2022/11/05 02:40:21;;;;;;;;;;;6.60;99.90;;;;;;5071144;28;19963;-76
2022/11/05 02:43:22;;;;;;;;;;;6.70;99.90;;;;;;5076572;28;19912;-76
2022/11/05 02:45:53;;;;;;;;;;;6.70;99.90;;;;;;5055160;28;20358;-76
2022/11/05 02:48:25;;;;;;;;;;;6.70;99.90;;;;;;5070733;28;19954;-79
2022/11/05 02:50:51;;;;;;;;;;;6.70;99.90;;;;;;5070785;28;19938;-76
2022/11/05 02:53:35;;;;;;;;;;;6.70;99.90;;;;;;5065030;28;20351;-76
2022/11/05 02:56:21;;;;;;;;;;;6.50;99.90;;;;;;5066502;28;20019;-76
2022/11/05 02:58:47;;;;;;;;;;;6.30;99.90;;;;;;5075388;28;19927;-75
2022/11/05 03:01:12;;;;;;;;;;;6.10;99.90;;;;;;5075288;28;19921;-76
2022/11/05 03:03:41;;;;;;;;;;;6.20;99.90;;;;;;5076739;28;19919;-76
2022/11/05 03:06:26;;;;;;;;;;;6.10;99.90;;;;;;5109436;28;19923;-75
2022/11/05 03:08:51;;;;;;;;;;;6.10;99.90;;;;;;5075498;28;19909;-76
2022/11/05 03:11:25;;;;;;;;;;;6.20;99.90;;;;;;5076141;28;20303;-76
2022/11/05 03:14:06;;;;;;;;;;;6.20;99.90;;;;;;5072988;28;19991;-76
2022/11/05 03:16:38;;;;;;;;;;;6.20;99.90;;;;;;5062993;28;20023;-76
2022/11/05 03:19:20;;;;;;;;;;;6.20;99.90;;;;;;5073823;28;20010;-76
2022/11/05 03:21:49;;;;;;;;;;;6.20;99.90;;;;;;5065869;28;19952;-76
2022/11/05 03:24:25;;;;;;;;;;;6.10;99.90;;;;;;5108976;28;19913;-75
2022/11/05 03:27:11;;;;;;;;;;;6.00;99.90;;;;;;5076870;28;19938;-76
2022/11/05 03:29:42;;;;;;;;;;;6.00;99.90;;;;;;5074488;28;19962;-76
2022/11/05 03:32:08;;;;;;;;;;;5.90;99.90;;;;;;5071550;28;19963;-76
2022/11/05 03:34:48;;;;;;;;;;;6.00;99.90;;;;;;5056753;28;19917;-76
2022/11/05 03:37:15;;;;;;;;;;;6.10;99.90;;;;;;5060615;28;20276;-76
2022/11/05 03:39:43;;;;;;;;;;;6.10;99.90;;;;;;5070646;28;19924;-76
2022/11/05 03:42:11;;;;;;;;;;;6.10;99.90;;;;;;5071370;28;19912;-76
2022/11/05 03:44:38;;;;;;;;;;;6.20;99.90;;;;;;5071942;28;20324;-76
2022/11/05 03:47:15;;;;;;;;;;;6.20;99.90;;;;;;5075960;28;19924;-80
2022/11/05 03:49:52;;;;;;;;;;;6.20;99.90;;;;;;5073606;28;19919;-76
2022/11/05 03:52:20;;;;;;;;;;;6.10;99.90;;;;;;5062273;28;19962;-75
2022/11/05 03:54:46;;;;;;;;;;;6.10;99.90;;;;;;5070501;28;19917;-76
2022/11/05 03:57:19;;;;;;;;;;;6.20;99.90;;;;;;5061302;28;19908;-76
2022/11/05 03:59:46;;;;;;;;;;;6.30;99.90;;;;;;5075583;28;19965;-76
2022/11/05 04:02:12;;;;;;;;;;;6.40;99.90;;;;;;5093181;28;20315;-75
2022/11/05 04:04:38;;;;;;;;;;;6.40;99.90;;;;;;5075078;28;19920;-75
2022/11/05 04:15:17;;;;;;;;;;;6.70;99.90;;;;;;5066850;28;19919;-76
2022/11/05 04:17:42;;;;;;;;;;;6.70;99.90;;;;;;5072556;28;19999;-75
2022/11/05 04:25:43;;;;;;;;;;;6.70;99.90;;;;;;5068253;28;20214;-76
2022/11/05 04:28:09;;;;;;;;;;;6.70;99.90;;;;;;5073644;28;19921;-76
2022/11/05 04:30:34;;;;;;;;;;;6.70;99.90;;;;;;5074987;28;19912;-76
2022/11/05 04:33:02;;;;;;;;;;;6.80;99.90;;;;;;5075270;28;19944;-75
2022/11/05 04:35:44;;;;;;;;;;;6.70;99.90;;;;;;5074068;28;19919;-76
2022/11/05 04:38:11;;;;;;;;;;;6.70;99.90;;;;;;5071390;28;20010;-75
2022/11/05 04:40:37;;;;;;;;;;;6.70;99.90;;;;;;5073324;28;19917;-75
2022/11/05 04:43:04;;;;;;;;;;;6.70;99.90;;;;;;5088572;28;19917;-76
2022/11/05 04:45:30;;;;;;;;;;;6.60;99.90;;;;;;5074223;28;20201;-75
2022/11/05 04:47:56;;;;;;;;;;;6.70;99.90;;;;;;5073829;28;19917;-75
2022/11/05 04:50:22;;;;;;;;;;;6.70;99.90;;;;;;5074293;28;19915;-77
2022/11/05 04:52:47;;;;;;;;;;;6.70;99.90;;;;;;5074847;28;19943;-76
2022/11/05 04:55:13;;;;;;;;;;;6.80;99.90;;;;;;5065814;28;19908;-75
2022/11/05 04:57:39;;;;;;;;;;;6.80;99.90;;;;;;5074976;28;19921;-73
2022/11/05 05:00:05;;;;;;;;;;;6.80;99.90;;;;;;5072879;28;19915;-74
2022/11/05 05:02:31;;;;;;;;;;;6.80;99.90;;;;;;5062517;28;19966;-72
2022/11/05 05:04:56;;;;;;;;;;;6.80;99.90;;;;;;5072675;28;19951;-73
2022/11/05 05:07:22;;;;;;;;;;;6.80;99.90;;;;;;5064394;28;20240;-72
2022/11/05 05:09:48;;;;;;;;;;;6.80;99.90;;;;;;5060036;28;19975;-73
2022/11/05 05:12:13;;;;;;;;;;;6.80;99.90;;;;;;5106371;28;20227;-73
2022/11/05 05:14:39;;;;;;;;;;;6.80;99.90;;;;;;5067176;28;19920;-74
2022/11/05 05:17:04;;;;;;;;;;;7.00;99.90;;;;;;5105480;28;20335;-73
2022/11/05 05:21:37;;;;;;;;;;;7.00;99.90;;;;;;5059195;28;19927;-72
2022/11/05 05:22:16;;;;;;;;;;;7.00;99.90;;;;;;5074947;28;20003;-76
2022/11/05 05:24:41;;;;;;;;;;;7.00;99.90;;;;;;5073700;28;20003;-73
2022/11/05 05:27:07;;;;;;;;;;;7.00;99.90;;;;;;5073866;28;19920;-73
2022/11/05 05:29:33;;;;;;;;;;;7.00;99.90;;;;;;5057010;28;19913;-75
2022/11/05 05:31:58;;;;;;;;;;;7.00;99.90;;;;;;5069377;28;20212;-73
2022/11/05 05:34:24;;;;;;;;;;;7.10;99.90;;;;;;5060788;28;20224;-73
2022/11/05 05:36:50;;;;;;;;;;;7.00;99.90;;;;;;5066549;28;20223;-73
2022/11/05 05:39:15;;;;;;;;;;;7.00;99.90;;;;;;5074398;28;19925;-73
2022/11/05 05:41:41;;;;;;;;;;;7.00;99.90;;;;;;5071576;28;19920;-72
2022/11/05 05:44:06;;;;;;;;;;;7.00;99.90;;;;;;5073499;28;19908;-73
2022/11/05 05:46:32;;;;;;;;;;;7.00;99.90;;;;;;5072493;28;20009;-73
2022/11/05 05:48:57;;;;;;;;;;;7.10;99.90;;;;;;5075020;28;20222;-73
2022/11/05 05:51:23;;;;;;;;;;;7.20;99.90;;;;;;5066872;28;20031;-73
2022/11/05 05:53:48;;;;;;;;;;;7.20;99.90;;;;;;5077971;28;19962;-72
2022/11/05 05:56:18;;;;;;;;;;;7.30;99.90;;;;;;5077130;28;19927;-75
2022/11/05 05:58:43;;;;;;;;;;;7.30;99.90;;;;;;5078263;28;19913;-73
2022/11/05 06:01:13;;;;;;;;;;;7.30;99.90;;;;;;5067918;28;19916;-74
2022/11/05 06:03:38;;;;;;;;;;;7.40;99.90;;;;;;5078162;28;20003;-73
2022/11/05 06:06:08;;;;;;;;;;;7.50;99.90;;;;;;5076919;28;19999;-74
2022/11/05 06:08:34;;;;;;;;;;;7.50;99.90;;;;;;5066901;28;19919;-74
2022/11/05 06:11:00;;;;;;;;;;;7.60;99.90;;;;;;5075174;28;20006;-73
2022/11/05 06:13:26;;;;;;;;;;;7.60;99.90;;;;;;5075159;28;19923;-74
2022/11/05 06:15:52;;;;;;;;;;;7.60;99.90;;;;;;5075196;28;19917;-73
2022/11/05 06:18:18;;;;;;;;;;;7.60;99.90;;;;;;5069796;28;20307;-73
2022/11/05 06:20:44;;;;;;;;;;;7.50;99.90;;;;;;5071764;28;19909;-73
2022/11/05 06:23:10;;;;;;;;;;;7.50;99.90;;;;;;5070692;28;19912;-73
2022/11/05 06:25:35;;;;;;;;;;;7.50;99.90;;;;;;5077350;28;19916;-73
2022/11/05 06:28:01;;;;;;;;;;;7.60;99.90;;;;;;5077062;28;19909;-73
2022/11/05 06:30:26;;;;;;;;;;;7.60;99.90;;;;;;5078009;28;20219;-75
2022/11/05 06:32:52;;;;;;;;;;;7.60;99.90;;;;;;5076007;28;19996;-73
2022/11/05 06:35:17;;;;;;;;;;;7.60;99.90;;;;;;5078043;28;20002;-74
2022/11/05 06:37:43;;;;;;;;;;;7.60;99.90;;;;;;5063317;28;19913;-73
2022/11/05 06:40:09;;;;;;;;;;;7.70;99.90;;;;;;5107993;28;19925;-73
2022/11/05 06:42:34;;;;;;;;;;;7.60;99.90;;;;;;5072563;28;19915;-73
2022/11/05 06:45:00;;;;;;;;;;;7.60;99.90;;;;;;5073682;28;19948;-73
2022/11/05 06:47:25;;;;;;;;;;;7.50;99.90;;;;;;5109323;28;19916;-74
2022/11/05 06:49:51;;;;;;;;;;;7.50;99.90;;;;;;5062956;28;19912;-73
2022/11/05 06:52:16;;;;;;;;;;;7.50;99.90;;;;;;5075391;28;19920;-73
2022/11/05 06:54:42;;;;;;;;;;;7.40;99.90;;;;;;5075267;28;19919;-73
2022/11/05 06:57:09;;;;;;;;;;;7.40;99.90;;;;;;5074352;28;19995;-73
2022/11/05 06:59:35;;;;;;;;;;;7.30;99.90;;;;;;5076584;28;20235;-73
2022/11/05 07:02:01;;;;;;;;;;;7.30;99.90;;;;;;5076327;28;19913;-73
2022/11/05 07:04:27;;;;;;;;;;;7.30;99.90;;;;;;5073330;28;19920;-73
2022/11/05 07:06:52;;;;;;;;;;;7.20;99.90;;;;;;5075693;28;19942;-73
2022/11/05 07:09:18;;;;;;;;;;;7.20;99.90;;;;;;5109339;28;19909;-73
2022/11/05 07:11:44;;;;;;;;;;;7.20;99.90;;;;;;5071704;28;19920;-73
2022/11/05 07:14:09;;;;;;;;;;;7.10;99.90;;;;;;5074802;28;19913;-73
2022/11/05 07:16:35;;;;;;;;;;;7.10;99.90;;;;;;5064012;28;19917;-73
2022/11/05 07:19:00;;;;;;;;;;;7.10;99.90;;;;;;5069092;28;19920;-73
2022/11/05 07:21:27;;;;;;;;;;;7.10;99.90;;;;;;5073305;28;19916;-73
2022/11/05 07:23:52;;;;;;;;;;;7.10;99.90;;;;;;5071421;28;19920;-73
2022/11/05 07:26:18;;;;;;;;;;;7.20;99.90;;;;;;5061235;28;19913;-72
2022/11/05 07:28:43;;;;;;;;;;;7.20;99.90;;;;;;5070236;28;20346;-73
2022/11/05 07:31:09;;;;;;;;;;;7.20;99.90;;;;;;5074663;28;19916;-72
2022/11/05 07:33:34;;;;;;;;;;;7.20;99.90;;;;;;5075675;28;19912;-73
2022/11/05 07:36:00;;;;;;;;;;;7.30;99.90;;;;;;5074204;28;20219;-73
2022/11/05 07:38:26;;;;;;;;;;;7.30;99.90;;;;;;5072709;28;20266;-72
2022/11/05 07:40:52;;;;;;;;;;;7.40;99.90;;;;;;5072488;28;19913;-74
2022/11/05 07:43:17;;;;;;;;;;;7.50;99.90;;;;;;5070400;28;19915;-75
2022/11/05 07:45:44;;;;;;;;;;;7.60;99.90;;;;;;5074595;28;19908;-73
2022/11/05 07:48:10;;;;;;;;;;;7.70;99.90;;;;;;5067248;28;19916;-73
2022/11/05 07:50:36;;;;;;;;;;;7.70;99.90;;;;;;5070145;28;19920;-73
2022/11/05 07:53:03;;;;;;;;;;;7.80;99.90;;;;;;5072711;28;19916;-73
2022/11/05 07:55:29;;;;;;;;;;;7.90;99.90;;;;;;5072597;28;19916;-73
2022/11/05 07:57:54;;;;;;;;;;;7.90;99.90;;;;;;5074694;28;19917;-73
2022/11/05 08:00:21;;;;;;;;;;;7.90;99.90;;;;;;5070030;28;19952;-73
2022/11/05 08:02:59;;;;;;;;;;;7.90;99.90;;;;;;5072606;28;20007;-73
2022/11/05 08:05:25;;;;;;;;;;;7.90;99.90;;;;;;5076187;28;20345;-73
2022/11/05 08:07:52;;;;;;;;;;;7.80;99.90;;;;;;5070982;28;19920;-73
2022/11/05 08:10:18;;;;;;;;;;;7.80;99.90;;;;;;5073181;28;20277;-73
2022/11/05 08:12:43;;;;;;;;;;;7.80;99.90;;;;;;5055535;28;19932;-73
2022/11/05 08:15:09;;;;;;;;;;;7.80;99.90;;;;;;5073691;28;19916;-76
2022/11/05 08:17:35;;;;;;;;;;;7.80;99.90;;;;;;5071316;28;20019;-74
2022/11/05 08:20:01;;;;;;;;;;;7.80;99.90;;;;;;5073890;28;19967;-73
2022/11/05 08:22:26;;;;;;;;;;;7.80;99.90;;;;;;5071246;28;19944;-73
2022/11/05 08:24:52;;;;;;;;;;;7.90;99.90;;;;;;5072835;28;19916;-73
2022/11/05 08:27:18;;;;;;;;;;;8.00;99.90;;;;;;5083341;28;19935;-73
2022/11/05 08:29:43;;;;;;;;;;;8.10;99.90;;;;;;5074483;28;19966;-73
2022/11/05 08:32:09;;;;;;;;;;;8.20;99.90;;;;;;5070436;28;20341;-73
2022/11/05 08:34:35;;;;;;;;;;;8.40;99.90;;;;;;5062079;28;19912;-73
2022/11/05 08:37:00;;;;;;;;;;;8.50;99.90;;;;;;5073740;28;20307;-73
2022/11/05 08:39:26;;;;;;;;;;;8.60;99.90;;;;;;5107516;28;19921;-73
2022/11/05 08:41:52;;;;;;;;;;;8.80;99.90;;;;;;5069983;28;19908;-75
2022/11/05 08:44:17;;;;;;;;;;;8.80;99.90;;;;;;5108109;28;19912;-74
2022/11/05 08:46:43;;;;;;;;;;;8.80;99.90;;;;;;5071421;28;19917;-73
2022/11/05 08:49:08;;;;;;;;;;;9.00;99.90;;;;;;5072593;28;20227;-74
2022/11/05 08:51:34;;;;;;;;;;;9.00;99.90;;;;;;5062733;28;20003;-74
2022/11/05 08:54:00;;;;;;;;;;;9.00;99.90;;;;;;5074155;28;20257;-73
2022/11/05 08:56:25;;;;;;;;;;;9.10;99.90;;;;;;5075121;28;19912;-74
2022/11/05 08:58:51;;;;;;;;;;;9.10;99.90;;;;;;5074461;28;20394;-74
2022/11/05 09:01:16;;;;;;;;;;;9.10;99.90;;;;;;5074963;28;20254;-74
2022/11/05 09:03:42;;;;;;;;;;;9.10;99.90;;;;;;5075248;28;19913;-75
2022/11/05 09:06:08;;;;;;;;;;;9.20;99.90;;;;;;5060005;28;20007;-74
2022/11/05 09:08:33;;;;;;;;;;;9.30;99.90;;;;;;5075341;28;20006;-74
2022/11/05 09:10:59;;;;;;;;;;;9.30;99.90;;;;;;5057015;28;19919;-74
2022/11/05 09:13:25;;;;;;;;;;;9.30;99.90;;;;;;5066657;28;19912;-74
2022/11/05 09:15:50;;;;;;;;;;;9.30;99.90;;;;;;5069571;28;19971;-73
2022/11/05 09:18:17;;;;;;;;;;;9.30;99.90;;;;;;5069918;28;20361;-74
2022/11/05 09:20:43;;;;;;;;;;;9.50;99.90;;;;;;5066115;28;20223;-74
2022/11/05 09:23:09;;;;;;;;;;;9.70;99.90;;;;;;5071707;28;19908;-74
2022/11/05 09:25:34;;;;;;;;;;;9.80;99.90;;;;;;5073881;28;19962;-75
2022/11/05 09:28:07;;;;;;;;;;;10.00;99.90;;;;;;5072983;28;19916;-74
2022/11/05 09:30:33;;;;;;;;;;;10.00;99.90;;;;;;5070266;28;19935;-74
2022/11/05 09:32:58;;;;;;;;;;;10.10;99.90;;;;;;5055967;28;20328;-75
2022/11/05 09:35:24;;;;;;;;;;;10.20;99.90;;;;;;5071688;28;20312;-74
2022/11/05 09:37:49;;;;;;;;;;;10.20;99.90;;;;;;5073981;28;19920;-74
2022/11/05 09:40:15;;;;;;;;;;;10.30;99.90;;;;;;5074528;28;19924;-74
2022/11/05 09:42:44;;;;;;;;;;;10.30;99.90;;;;;;5069698;28;19970;-74
2022/11/05 09:45:19;;;;;;;;;;;10.30;99.90;;;;;;5072412;28;20242;-73
2022/11/05 09:47:49;;;;;;;;;;;10.30;99.90;;;;;;5073513;28;19932;-74
2022/11/05 09:50:24;;;;;;;;;;;10.40;99.90;;;;;;5067747;28;19960;-74
2022/11/05 09:52:49;;;;;;;;;;;10.60;99.90;;;;;;5069151;28;19913;-73
2022/11/05 09:55:26;;;;;;;;;;;10.60;99.90;;;;;;5065597;28;19915;-73
2022/11/05 09:57:54;;;;;;;;;;;10.70;99.90;;;;;;5071207;28;19920;-73
2022/11/05 10:00:20;;;;;;;;;;;10.80;99.90;;;;;;5072955;28;19995;-74
2022/11/05 10:02:51;;;;;;;;;;;10.90;99.90;;;;;;5074365;28;20011;-72
2022/11/05 10:05:17;;;;;;;;;;;10.90;99.90;;;;;;5073042;28;19916;-74
2022/11/05 10:07:45;;;;;;;;;;;10.90;99.90;;;;;;5072470;28;20262;-74
2022/11/05 10:10:20;;;;;;;;;;;11.10;99.90;;;;;;5073028;28;19913;-74
2022/11/05 10:12:49;;;;;;;;;;;11.10;99.90;;;;;;5074215;28;19913;-74
2022/11/05 10:15:15;;;;;;;;;;;11.10;99.90;;;;;;5073110;28;19908;-73
2022/11/05 10:17:43;;;;;;;;;;;11.10;99.90;;;;;;5073559;28;19917;-73
2022/11/05 10:20:08;;;;;;;;;;;11.10;99.90;;;;;;5074180;28;20003;-72
2022/11/05 10:22:35;;;;;;;;;;;11.10;99.90;;;;;;5073780;28;19943;-74
2022/11/05 10:25:01;;;;;;;;;;;11.10;99.90;;;;;;5074295;28;19958;-72
2022/11/05 10:27:31;;;;;;;;;;;11.10;99.90;;;;;;5073545;28;19912;-75
2022/11/05 10:29:57;;;;;;;;;;;11.10;99.90;;;;;;5068820;28;20007;-75
2022/11/05 10:32:31;;;;;;;;;;;11.10;99.90;;;;;;5104426;28;19960;-73
2022/11/05 10:34:58;;;;;;;;;;;11.10;99.90;;;;;;5071102;28;19960;-74
2022/11/05 10:37:24;;;;;;;;;;;11.10;99.90;;;;;;5074327;28;19916;-73
2022/11/05 10:39:50;;;;;;;;;;;11.10;99.90;;;;;;5074964;28;20281;-73
2022/11/05 10:42:18;;;;;;;;;;;11.10;99.90;;;;;;5070698;28;19931;-73
2022/11/05 10:45:03;;;;;;;;;;;11.10;99.90;;;;;;5072896;28;19919;-77
2022/11/05 10:47:41;;;;;;;;;;;11.00;99.90;;;;;;5075948;28;20329;-73
2022/11/05 10:50:17;;;;;;;;;;;11.00;99.90;;;;;;5074773;28;19919;-74
2022/11/05 10:53:01;;;;;;;;;;;10.90;99.90;;;;;;5078789;28;20269;-73
2022/11/05 10:55:29;;;;;;;;;;;10.90;99.90;;;;;;5071610;28;20289;-73
2022/11/05 10:58:05;;;;;;;;;;;10.90;99.90;;;;;;5069194;28;19920;-75
2022/11/05 11:00:31;;;;;;;;;;;11.00;99.90;;;;;;5074896;28;19916;-74
2022/11/05 11:02:58;;;;;;;;;;;11.00;99.90;;;;;;5026308;28;19920;-75
2022/11/05 11:05:23;;;;;;;;;;;11.00;99.90;;;;;;5107899;28;20315;-75
2022/11/05 11:07:54;;;;;;;;;;;10.90;99.90;;;;;;5070757;28;19920;-74
2022/11/05 11:10:21;;;;;;;;;;;10.90;99.90;;;;;;5076438;28;19916;-74
2022/11/05 11:12:48;;;;;;;;;;;11.00;99.90;;;;;;5071266;28;19921;-73
2022/11/05 11:15:20;;;;;;;;;;;11.10;99.90;;;;;;5075075;28;21397;-72
2022/11/05 11:17:46;;;;;;;;;;;11.10;99.90;;;;;;5108171;28;19938;-74
2022/11/05 11:20:18;;;;;;;;;;;11.10;99.90;;;;;;5072683;28;20246;-74
2022/11/05 11:23:09;;;;;;;;;;;11.20;99.90;;;;;;5075110;28;19912;-74
2022/11/05 11:25:51;;;;;;;;;;;11.30;99.90;;;;;;5075064;28;20001;-74
2022/11/05 11:28:23;;;;;;;;;;;11.20;99.90;;;;;;5073809;28;19999;-73
2022/11/05 11:30:51;;;;;;;;;;;11.20;99.90;;;;;;5072463;28;20200;-73
2022/11/05 11:33:20;;;;;;;;;;;11.20;99.90;;;;;;5067265;28;20308;-73
2022/11/05 11:35:46;;;;;;;;;;;11.30;99.90;;;;;;5074788;28;20223;-73
2022/11/05 11:38:13;;;;;;;;;;;11.30;99.90;;;;;;5076355;28;19913;-73
2022/11/05 11:40:39;;;;;;;;;;;11.40;99.90;;;;;;5072361;28;19912;-74
2022/11/05 11:43:13;;;;;;;;;;;11.50;99.90;;;;;;5067072;28;19908;-73
2022/11/05 11:45:46;;;;;;;;;;;11.50;99.90;;;;;;5074947;28;19958;-74
2022/11/05 11:48:17;;;;;;;;;;;11.50;99.90;;;;;;5067608;28;19912;-73
2022/11/05 11:50:44;;;;;;;;;;;11.50;99.90;;;;;;5073907;28;19912;-73
2022/11/05 11:53:18;;;;;;;;;;;11.50;99.90;;;;;;5062427;28;19916;-74
2022/11/05 11:56:03;;;;;;;;;;;11.50;99.90;;;;;;5072521;28;20211;-73
2022/11/05 11:58:40;;;;;;;;;;;11.50;99.90;;;;;;5073904;28;19913;-72
2022/11/05 12:01:27;;;;;;;;;;;11.50;99.90;;;;;;5071644;28;19916;-73
2022/11/05 12:03:58;;;;;;;;;;;11.50;99.90;;;;;;5074339;28;19912;-74
2022/11/05 12:06:27;;;;;;;;;;;11.40;99.90;;;;;;5070371;28;19961;-73
2022/11/05 12:09:31;;;;;;;;;;;11.50;99.90;;;;;;5072906;28;19927;-73
2022/11/05 12:11:57;;;;;;;;;;;11.60;99.90;;;;;;5054975;28;20011;-73
2022/11/05 12:14:35;;;;;;;;;;;11.80;99.90;;;;;;5054580;28;20004;-72
2022/11/05 12:17:07;;;;;;;;;;;12.00;99.90;;;;;;5065951;28;19912;-72
2022/11/05 12:19:38;;;;;;;;;;;12.20;99.90;;;;;;5073018;28;20388;-73
2022/11/05 12:22:09;;;;;;;;;;;12.30;99.90;;;;;;5069156;28;19919;-72
2022/11/05 12:24:46;;;;;;;;;;;12.50;99.90;;;;;;5067657;28;19999;-73
2022/11/05 12:27:21;;;;;;;;;;;12.60;99.90;;;;;;5076713;28;20311;-72
2022/11/05 12:29:46;;;;;;;;;;;12.50;99.90;;;;;;5077810;28;19916;-72
2022/11/05 12:32:21;;;;;;;;;;;12.50;99.90;;;;;;5107132;28;19912;-71
2022/11/05 12:35:05;;;;;;;;;;;12.40;99.90;;;;;;5055172;28;19920;-72
2022/11/05 12:37:30;;;;;;;;;;;12.30;99.90;;;;;;5074642;28;19920;-72
2022/11/05 12:40:15;;;;;;;;;;;12.30;99.90;;;;;;5072465;28;21710;-73
2022/11/05 12:42:41;;;;;;;;;;;12.20;99.90;;;;;;5071370;28;19916;-72
2022/11/05 12:45:18;;;;;;;;;;;12.10;99.90;;;;;;5074566;28;19928;-71
2022/11/05 12:47:47;;;;;;;;;;;12.00;99.90;;;;;;5072166;28;20320;-72
2022/11/05 12:50:18;;;;;;;;;;;11.90;99.90;;;;;;5065988;28;19912;-72
2022/11/05 12:52:56;;;;;;;;;;;11.90;99.90;;;;;;5074392;28;20311;-72
2022/11/05 12:55:23;;;;;;;;;;;11.80;99.90;;;;;;5073744;28;20000;-71
2022/11/05 12:57:51;;;;;;;;;;;11.80;99.90;;;;;;5067346;28;19920;-73
2022/11/05 13:00:24;;;;;;;;;;;11.90;99.90;;;;;;5104375;28;19950;-73
2022/11/05 13:02:49;;;;;;;;;;;12.00;99.90;;;;;;5064987;28;20296;-71
2022/11/05 13:05:18;;;;;;;;;;;12.00;99.90;;;;;;5073945;28;19943;-73
2022/11/05 13:07:48;;;;;;;;;;;12.00;99.90;;;;;;5068533;28;20015;-73
2022/11/05 13:10:29;;;;;;;;;;;12.00;99.90;;;;;;5055573;28;20270;-73
2022/11/05 13:13:08;;;;;;;;;;;11.90;99.90;;;;;;5071088;28;20017;-73
2022/11/05 13:15:56;;;;;;;;;;;11.90;99.90;;;;;;5069966;28;19921;-73
2022/11/05 13:18:28;;;;;;;;;;;12.00;99.90;;;;;;5067713;28;19912;-73
2022/11/05 13:20:55;;;;;;;;;;;12.00;99.90;;;;;;5073050;28;19912;-73
2022/11/05 13:23:22;;;;;;;;;;;12.00;99.90;;;;;;5074572;28;19917;-74
2022/11/05 13:25:51;;;;;;;;;;;12.00;99.90;;;;;;5070434;28;20011;-73
2022/11/05 13:28:23;;;;;;;;;;;11.90;99.90;;;;;;5069104;28;19909;-73
2022/11/05 13:30:54;;;;;;;;;;;11.90;99.90;;;;;;5069794;28;19908;-73
2022/11/05 13:33:31;;;;;;;;;;;11.90;99.90;;;;;;5063826;28;19920;-73
2022/11/05 13:38:59;;;;;;;;;;;11.90;99.90;;;;;;5073339;28;20057;-73
2022/11/05 13:41:28;;;;;;;;;;;11.90;99.90;;;;;;5072555;28;19912;-72
2022/11/05 13:43:56;;;;;;;;;;;11.90;99.90;;;;;;5074455;28;19908;-72
2022/11/05 13:46:30;;;;;;;;;;;11.70;99.90;;;;;;5074063;28;19943;-73
2022/11/05 13:48:56;;;;;;;;;;;11.70;99.90;;;;;;5100659;28;19916;-73
2022/11/05 13:51:42;;;;;;;;;;;11.60;99.90;;;;;;5060944;28;20351;-72
2022/11/05 13:54:14;;;;;;;;;;;11.60;99.90;;;;;;5074640;28;19995;-73
2022/11/05 13:56:45;;;;;;;;;;;11.50;99.90;;;;;;5073142;28;19909;-74
2022/11/05 13:59:13;;;;;;;;;;;11.50;99.90;;;;;;5055030;28;19916;-74
2022/11/05 14:01:42;;;;;;;;;;;11.50;99.90;;;;;;5068306;28;19940;-73
2022/11/05 14:04:21;;;;;;;;;;;11.50;99.90;;;;;;5066025;28;19927;-74
2022/11/05 14:06:47;;;;;;;;;;;11.50;99.90;;;;;;5072168;28;20322;-76
2022/11/05 14:09:17;;;;;;;;;;;11.60;99.90;;;;;;5063261;28;19916;-74
2022/11/05 14:11:47;;;;;;;;;;;11.70;99.90;;;;;;5060526;28;19916;-73
2022/11/05 14:14:24;;;;;;;;;;;11.60;99.90;;;;;;5073411;28;20085;-73
2022/11/05 14:17:11;;;;;;;;;;;11.50;99.90;;;;;;5071661;28;20043;-73
2022/11/05 14:20:04;;;;;;;;;;;11.50;99.90;;;;;;5076097;28;19973;-72
2022/11/05 14:22:30;;;;;;;;;;;11.40;99.90;;;;;;5075359;28;19916;-73
2022/11/05 14:24:56;;;;;;;;;;;11.40;99.90;;;;;;5076188;28;20402;-73
2022/11/05 14:27:28;;;;;;;;;;;11.30;99.90;;;;;;5073496;28;19928;-73
2022/11/05 14:29:54;;;;;;;;;;;11.30;99.90;;;;;;5075016;28;20211;-73
2022/11/05 14:32:19;;;;;;;;;;;11.20;99.90;;;;;;5069552;28;19908;-73
2022/11/05 14:34:48;;;;;;;;;;;11.20;99.90;;;;;;5076059;28;19917;-73
2022/11/05 14:37:24;;;;;;;;;;;11.20;99.90;;;;;;5075745;28;19915;-73
2022/11/05 14:39:51;;;;;;;;;;;11.20;99.90;;;;;;5075657;28;20326;-74
2022/11/05 14:42:29;;;;;;;;;;;11.20;99.90;;;;;;5072038;28;20299;-73
2022/11/05 14:45:00;;;;;;;;;;;11.20;99.90;;;;;;5074212;28;20291;-73
2022/11/05 14:47:31;;;;;;;;;;;11.20;99.90;;;;;;5073495;28;19923;-73
2022/11/05 14:50:00;;;;;;;;;;;11.20;99.90;;;;;;5072519;28;19936;-73
2022/11/05 14:52:26;;;;;;;;;;;11.20;99.90;;;;;;5066733;28;19965;-73
2022/11/05 14:54:53;;;;;;;;;;;11.10;99.90;;;;;;5071808;28;19913;-73
2022/11/05 14:57:46;;;;;;;;;;;11.10;99.90;;;;;;5074429;28;19935;-73
2022/11/05 15:00:43;;;;;;;;;;;11.10;99.90;;;;;;5055701;28;20004;-73
2022/11/05 15:03:29;;;;;;;;;;;11.10;99.90;;;;;;5050048;28;19915;-73
2022/11/05 15:06:18;;;;;;;;;;;11.10;99.90;;;;;;5051493;28;19920;-73
2022/11/05 15:08:47;;;;;;;;;;;11.10;99.90;;;;;;5054008;28;19955;-74
2022/11/05 15:11:31;;;;;;;;;;;11.10;99.90;;;;;;5042213;28;19963;-74
2022/11/05 15:14:03;;;;;;;;;;;11.10;99.90;;;;;;5070001;28;20012;-74
2022/11/05 15:16:39;;;;;;;;;;;11.10;99.90;;;;;;5053661;28;19927;-78
2022/11/05 15:19:09;;;;;;;;;;;11.10;99.90;;;;;;5044173;28;20380;-74